Time;durP1;ratioP1;P1;durP2;ratioP2;P2;SDS_P1;SDS_P2;PMS_P1;PMS_P2;Temp;Humidity;BMP_temperature;BMP_pressure;BME280_temperature;BME280_humidity;BME280_pressure;Samples;Min_cycle;Max_cycle;Signal;HPM_P1;HPM_P2
2023/06/08 00:00:58;;;;;;;17.90;9.07;;;;;;;;;;6305467;22;20013;-91
2023/06/08 00:03:43;;;;;;;19.48;9.52;;;;;;;;;;6306872;22;20018;-91
2023/06/08 00:06:32;;;;;;;16.73;7.63;;;;;;;;;;6283456;22;20038;-92
2023/06/08 00:09:17;;;;;;;21.38;8.05;;;;;;;;;;6306235;22;20018;-91
2023/06/08 00:12:03;;;;;;;19.77;8.88;;;;;;;;;;6305636;22;20015;-91
2023/06/08 00:14:47;;;;;;;17.75;8.48;;;;;;;;;;6306886;22;20057;-91
2023/06/08 00:17:32;;;;;;;17.70;8.70;;;;;;;;;;6305196;22;20022;-90
2023/06/08 00:20:16;;;;;;;22.60;8.80;;;;;;;;;;6306437;22;20076;-92
2023/06/08 00:23:04;;;;;;;18.88;9.13;;;;;;;;;;6283865;22;20022;-90
2023/06/08 00:25:51;;;;;;;17.02;9.05;;;;;;;;;;6305845;22;20073;-92
2023/06/08 00:28:36;;;;;;;22.50;10.50;;;;;;;;;;6305734;22;20483;-91
2023/06/08 00:31:20;;;;;;;19.60;9.40;;;;;;;;;;6306172;22;20061;-90
2023/06/08 00:34:05;;;;;;;17.08;8.90;;;;;;;;;;6306717;22;20087;-90
2023/06/08 00:36:50;;;;;;;14.05;8.55;;;;;;;;;;6304909;22;20160;-90
2023/06/08 00:39:36;;;;;;;19.63;9.10;;;;;;;;;;6283245;22;20017;-91
2023/06/08 00:42:20;;;;;;;19.02;8.40;;;;;;;;;;6304702;22;20060;-91
2023/06/08 00:45:05;;;;;;;17.00;9.40;;;;;;;;;;6306343;22;20468;-90
2023/06/08 00:47:50;;;;;;;20.23;8.82;;;;;;;;;;6284029;22;20053;-91
2023/06/08 00:50:34;;;;;;;20.27;8.68;;;;;;;;;;6306167;22;20624;-91
2023/06/08 00:53:19;;;;;;;18.30;8.43;;;;;;;;;;6306617;22;20056;-90
2023/06/08 00:56:04;;;;;;;20.50;8.55;;;;;;;;;;6305600;22;20098;-90
2023/06/08 00:58:49;;;;;;;16.05;8.73;;;;;;;;;;6283732;22;20050;-92
2023/06/08 01:01:35;;;;;;;22.35;9.68;;;;;;;;;;6304888;22;20011;-91
2023/06/08 01:04:20;;;;;;;26.80;9.50;;;;;;;;;;6283843;22;20072;-91
2023/06/08 01:07:27;;;;;;;20.85;9.98;;;;;;;;;;6305816;22;20460;-91
2023/06/08 01:10:18;;;;;;;21.50;9.73;;;;;;;;;;6307189;22;20057;-92
2023/06/08 01:13:10;;;;;;;21.13;10.15;;;;;;;;;;6307773;22;20329;-92
2023/06/08 01:16:02;;;;;;;21.67;9.13;;;;;;;;;;6308307;22;20022;-92
2023/06/08 01:18:48;;;;;;;23.80;9.25;;;;;;;;;;6308780;22;20476;-92
2023/06/08 01:21:51;;;;;;;20.50;9.05;;;;;;;;;;6306745;22;20018;-91
2023/06/08 01:24:38;;;;;;;18.23;10.32;;;;;;;;;;6307093;22;20065;-92
2023/06/08 01:27:25;;;;;;;22.67;10.15;;;;;;;;;;6285268;22;20506;-92
2023/06/08 01:30:10;;;;;;;18.35;10.70;;;;;;;;;;6308756;22;20141;-92
2023/06/08 01:32:55;;;;;;;27.77;11.02;;;;;;;;;;6308819;22;20019;-92
2023/06/08 01:35:40;;;;;;;23.48;11.70;;;;;;;;;;6308789;22;20034;-93
2023/06/08 01:38:40;;;;;;;23.30;10.93;;;;;;;;;;6308456;22;20015;-92
2023/06/08 01:41:27;;;;;;;33.00;12.13;;;;;;;;;;6307508;22;20111;-91
2023/06/08 01:44:13;;;;;;;22.27;11.23;;;;;;;;;;6307743;22;20037;-92
2023/06/08 01:47:00;;;;;;;26.35;11.35;;;;;;;;;;6308693;22;20037;-91
2023/06/08 01:49:46;;;;;;;19.17;9.75;;;;;;;;;;6307041;22;20013;-90
2023/06/08 01:52:31;;;;;;;22.13;9.35;;;;;;;;;;6306672;22;20010;-92
2023/06/08 01:55:22;;;;;;;23.25;9.88;;;;;;;;;;6306899;22;20014;-92
2023/06/08 01:58:07;;;;;;;22.40;9.48;;;;;;;;;;6307277;22;20468;-92
2023/06/08 02:00:51;;;;;;;20.80;10.10;;;;;;;;;;6308351;22;20393;-91
2023/06/08 02:03:36;;;;;;;21.35;9.48;;;;;;;;;;6306554;22;20014;-91
2023/06/08 02:06:20;;;;;;;20.85;9.70;;;;;;;;;;6308307;22;20034;-91
2023/06/08 02:09:05;;;;;;;18.98;9.02;;;;;;;;;;6306750;22;20037;-91
2023/06/08 02:11:50;;;;;;;27.60;10.65;;;;;;;;;;6285170;22;20015;-92
2023/06/08 02:14:35;;;;;;;31.33;11.05;;;;;;;;;;6284656;22;20519;-92
2023/06/08 02:17:26;;;;;;;23.42;9.60;;;;;;;;;;6307040;22;20053;-91
2023/06/08 02:20:11;;;;;;;21.55;8.93;;;;;;;;;;6306567;22;20022;-91
2023/06/08 02:22:55;;;;;;;20.25;9.23;;;;;;;;;;6307972;22;20018;-92
2023/06/08 02:25:40;;;;;;;19.88;8.93;;;;;;;;;;6307496;22;20495;-91
2023/06/08 02:28:24;;;;;;;19.75;8.27;;;;;;;;;;6306513;22;20053;-92
2023/06/08 02:31:09;;;;;;;25.52;9.38;;;;;;;;;;6306408;22;20026;-91
2023/06/08 02:33:54;;;;;;;18.73;8.20;;;;;;;;;;6306550;22;20050;-92
2023/06/08 02:36:39;;;;;;;18.95;8.45;;;;;;;;;;6305971;22;20026;-90
2023/06/08 02:39:24;;;;;;;19.63;8.02;;;;;;;;;;6284951;22;20516;-91
2023/06/08 02:42:09;;;;;;;20.02;7.72;;;;;;;;;;6307637;22;20014;-92
2023/06/08 02:44:53;;;;;;;17.15;8.20;;;;;;;;;;6306259;22;20068;-91
2023/06/08 02:47:38;;;;;;;22.60;8.43;;;;;;;;;;6283944;22;20018;-92
2023/06/08 02:50:22;;;;;;;18.88;7.13;;;;;;;;;;6307352;22;20013;-92
2023/06/08 02:53:07;;;;;;;15.90;6.70;;;;;;;;;;6306726;22;20057;-92
2023/06/08 02:55:53;;;;;;;20.48;9.00;;;;;;;;;;6306973;22;20034;-91
2023/06/08 02:58:41;;;;;;;17.92;8.13;;;;;;;;;;6305578;22;20330;-91
2023/06/08 03:01:30;;;;;;;17.88;8.18;;;;;;;;;;6306592;22;20389;-92
2023/06/08 03:04:18;;;;;;;20.40;10.63;;;;;;;;;;6307482;22;20033;-91
2023/06/08 03:07:03;;;;;;;23.70;9.38;;;;;;;;;;6306190;22;20029;-91
2023/06/08 03:09:47;;;;;;;22.10;9.25;;;;;;;;;;6306825;22;20030;-92
2023/06/08 03:12:32;;;;;;;21.38;9.60;;;;;;;;;;6283996;22;20061;-93
2023/06/08 03:15:22;;;;;;;19.05;8.38;;;;;;;;;;6307149;22;20010;-92
2023/06/08 03:18:07;;;;;;;25.63;10.02;;;;;;;;;;6306153;22;20529;-91
2023/06/08 03:20:51;;;;;;;23.67;9.35;;;;;;;;;;6305138;22;20017;-91
2023/06/08 03:23:37;;;;;;;22.23;10.40;;;;;;;;;;6283669;22;20381;-91
2023/06/08 03:26:22;;;;;;;24.73;9.52;;;;;;;;;;6284337;22;20022;-90
2023/06/08 03:29:07;;;;;;;20.55;9.95;;;;;;;;;;6305853;22;20453;-90
2023/06/08 03:31:52;;;;;;;19.58;9.32;;;;;;;;;;6283435;22;20153;-91
2023/06/08 03:34:37;;;;;;;21.33;11.02;;;;;;;;;;6305389;22;20112;-93
2023/06/08 03:37:22;;;;;;;20.45;9.48;;;;;;;;;;6284291;22;20042;-91
2023/06/08 03:40:06;;;;;;;18.90;9.32;;;;;;;;;;6284042;22;20019;-90
2023/06/08 03:42:51;;;;;;;25.88;10.27;;;;;;;;;;6283157;22;20019;-91
2023/06/08 03:45:36;;;;;;;23.42;10.27;;;;;;;;;;6306810;22;20065;-90
2023/06/08 03:48:20;;;;;;;23.35;10.82;;;;;;;;;;6307147;22;20018;-91
2023/06/08 03:51:07;;;;;;;31.38;10.27;;;;;;;;;;6284139;22;20038;-91
2023/06/08 03:53:52;;;;;;;19.98;9.40;;;;;;;;;;6305228;22;20019;-90
2023/06/08 03:56:36;;;;;;;23.40;10.02;;;;;;;;;;6306638;22;20022;-90
2023/06/08 03:59:21;;;;;;;23.65;11.05;;;;;;;;;;6305390;22;20080;-90
2023/06/08 04:02:06;;;;;;;23.13;9.88;;;;;;;;;;6305465;22;20588;-91
2023/06/08 04:04:53;;;;;;;18.63;9.63;;;;;;;;;;6304939;22;20041;-90
2023/06/08 04:07:38;;;;;;;18.58;9.52;;;;;;;;;;6284185;22;20053;-90
2023/06/08 04:10:23;;;;;;;16.70;9.30;;;;;;;;;;6305595;22;20088;-91
2023/06/08 04:13:08;;;;;;;21.40;8.73;;;;;;;;;;6305319;22;20053;-91
2023/06/08 04:15:53;;;;;;;21.13;9.30;;;;;;;;;;6305670;22;20025;-91
2023/06/08 04:18:41;;;;;;;24.23;9.18;;;;;;;;;;6306765;22;20396;-90
2023/06/08 04:21:26;;;;;;;15.45;8.50;;;;;;;;;;6284124;22;20102;-91
2023/06/08 04:24:11;;;;;;;21.55;8.10;;;;;;;;;;6283857;22;20085;-91
2023/06/08 04:26:56;;;;;;;19.27;7.97;;;;;;;;;;6305942;22;20013;-91
2023/06/08 04:29:40;;;;;;;18.38;8.05;;;;;;;;;;6283799;22;20146;-92
2023/06/08 04:32:26;;;;;;;17.83;7.60;;;;;;;;;;6305131;22;20424;-90
2023/06/08 04:35:10;;;;;;;22.42;8.65;;;;;;;;;;6306444;22;20076;-91
2023/06/08 04:37:55;;;;;;;17.15;7.80;;;;;;;;;;6305789;22;20122;-92
2023/06/08 04:40:41;;;;;;;13.65;7.20;;;;;;;;;;6305256;22;20796;-92
2023/06/08 04:43:29;;;;;;;18.40;7.53;;;;;;;;;;6308447;22;20014;-92
2023/06/08 04:46:15;;;;;;;13.95;7.63;;;;;;;;;;6308946;22;20091;-92
2023/06/08 04:49:00;;;;;;;20.55;8.07;;;;;;;;;;6285291;22;20053;-92
2023/06/08 04:51:46;;;;;;;18.67;7.38;;;;;;;;;;6307494;22;20037;-92
2023/06/08 04:54:31;;;;;;;18.08;7.25;;;;;;;;;;6286042;22;20208;-93
2023/06/08 04:57:16;;;;;;;21.30;9.05;;;;;;;;;;6307238;22;20018;-92
2023/06/08 05:00:01;;;;;;;20.50;8.35;;;;;;;;;;6285398;22;20072;-91
2023/06/08 05:02:46;;;;;;;16.75;8.13;;;;;;;;;;6283569;22;20014;-92
2023/06/08 05:05:30;;;;;;;16.38;7.60;;;;;;;;;;6306209;22;20453;-91
2023/06/08 05:08:15;;;;;;;21.38;7.95;;;;;;;;;;6305112;22;20118;-92
2023/06/08 05:11:02;;;;;;;19.30;8.02;;;;;;;;;;6304842;22;20014;-91
2023/06/08 05:13:46;;;;;;;21.50;7.97;;;;;;;;;;6306418;22;20023;-92
2023/06/08 05:16:32;;;;;;;31.58;9.57;;;;;;;;;;6282780;22;20029;-91
2023/06/08 05:19:17;;;;;;;17.00;8.50;;;;;;;;;;6305495;22;20029;-93
2023/06/08 05:22:01;;;;;;;19.52;8.40;;;;;;;;;;6305378;22;20499;-90
2023/06/08 05:24:46;;;;;;;21.00;7.25;;;;;;;;;;6302884;22;20057;-91
2023/06/08 05:27:31;;;;;;;22.58;9.02;;;;;;;;;;6307021;22;20103;-91
2023/06/08 05:30:15;;;;;;;23.70;8.48;;;;;;;;;;6305190;22;20014;-91
2023/06/08 05:33:00;;;;;;;16.75;8.65;;;;;;;;;;6304343;22;20025;-90
2023/06/08 05:35:45;;;;;;;23.85;8.38;;;;;;;;;;6307561;22;20011;-91
2023/06/08 05:38:29;;;;;;;16.55;8.48;;;;;;;;;;6305930;22;20090;-92
2023/06/08 05:41:14;;;;;;;18.75;6.68;;;;;;;;;;6305478;22;20345;-92
2023/06/08 05:43:58;;;;;;;26.80;8.82;;;;;;;;;;6307661;22;20022;-91
2023/06/08 05:46:43;;;;;;;16.35;7.30;;;;;;;;;;6284926;22;20452;-92
2023/06/08 05:49:27;;;;;;;20.33;7.63;;;;;;;;;;6306513;22;20380;-91
2023/06/08 05:52:12;;;;;;;16.70;6.68;;;;;;;;;;6305256;22;20014;-92
2023/06/08 05:54:56;;;;;;;12.23;6.72;;;;;;;;;;6305529;22;20015;-90
2023/06/08 05:57:41;;;;;;;14.45;6.40;;;;;;;;;;6307433;22;20021;-94
2023/06/08 06:00:25;;;;;;;21.05;7.53;;;;;;;;;;6284928;22;20018;-92
2023/06/08 06:03:10;;;;;;;13.90;5.75;;;;;;;;;;6283617;22;20072;-89
2023/06/08 06:05:55;;;;;;;20.85;6.60;;;;;;;;;;6307842;22;20095;-92
2023/06/08 06:08:39;;;;;;;13.63;5.13;;;;;;;;;;6310614;22;20590;-92
2023/06/08 06:11:27;;;;;;;17.77;6.43;;;;;;;;;;6309152;22;20342;-92
2023/06/08 06:14:12;;;;;;;18.95;5.40;;;;;;;;;;6283518;22;20014;-92
2023/06/08 06:16:56;;;;;;;18.67;5.22;;;;;;;;;;6304836;22;20022;-93
2023/06/08 06:19:41;;;;;;;15.82;5.20;;;;;;;;;;6305589;22;20056;-93
2023/06/08 06:22:26;;;;;;;14.00;5.82;;;;;;;;;;6306118;22;20013;-91
2023/06/08 06:25:10;;;;;;;15.90;5.93;;;;;;;;;;6283792;22;20535;-93
2023/06/08 06:27:54;;;;;;;15.13;6.15;;;;;;;;;;6285743;22;20021;-93
2023/06/08 06:30:39;;;;;;;15.48;5.38;;;;;;;;;;6283983;22;20018;-91
2023/06/08 06:33:23;;;;;;;16.90;5.38;;;;;;;;;;6284105;22;20014;-92
2023/06/08 06:36:08;;;;;;;10.60;5.18;;;;;;;;;;6283533;22;20060;-91
2023/06/08 06:38:55;;;;;;;15.45;5.95;;;;;;;;;;6284035;22;20018;-90
2023/06/08 06:41:40;;;;;;;15.93;4.97;;;;;;;;;;6306436;22;20030;-92
2023/06/08 06:44:25;;;;;;;13.43;5.38;;;;;;;;;;6305480;22;20372;-91
2023/06/08 06:47:09;;;;;;;17.85;5.15;;;;;;;;;;6306678;22;20033;-91
2023/06/08 06:49:54;;;;;;;14.00;6.05;;;;;;;;;;6306971;22;20125;-91
2023/06/08 06:52:39;;;;;;;18.40;5.38;;;;;;;;;;6305905;22;20129;-90
2023/06/08 06:55:23;;;;;;;15.63;5.03;;;;;;;;;;6305523;22;20457;-90
2023/06/08 06:58:09;;;;;;;11.32;4.68;;;;;;;;;;6283139;22;20506;-91
2023/06/08 07:00:55;;;;;;;12.23;5.05;;;;;;;;;;6306768;22;20094;-91
2023/06/08 07:03:43;;;;;;;18.77;5.63;;;;;;;;;;6306796;22;20036;-92
2023/06/08 07:06:28;;;;;;;14.85;5.55;;;;;;;;;;6284366;22;20065;-90
2023/06/08 07:09:13;;;;;;;15.90;5.07;;;;;;;;;;6307231;22;20068;-92
2023/06/08 07:11:58;;;;;;;11.07;5.05;;;;;;;;;;6284934;22;20069;-89
2023/06/08 07:14:42;;;;;;;17.40;6.57;;;;;;;;;;6284852;22;20376;-90
2023/06/08 07:17:27;;;;;;;14.70;5.22;;;;;;;;;;6310082;22;20099;-90
2023/06/08 07:20:12;;;;;;;18.83;4.88;;;;;;;;;;6307148;22;20461;-93
2023/06/08 07:22:57;;;;;;;12.30;5.15;;;;;;;;;;6306998;22;20380;-90
2023/06/08 07:25:41;;;;;;;12.50;4.68;;;;;;;;;;6305349;22;20114;-91
2023/06/08 07:28:26;;;;;;;13.77;5.00;;;;;;;;;;6305101;22;20045;-90
2023/06/08 07:31:10;;;;;;;14.55;5.38;;;;;;;;;;6306048;22;20018;-91
2023/06/08 07:33:56;;;;;;;12.48;4.82;;;;;;;;;;6305064;22;20011;-90
2023/06/08 07:36:41;;;;;;;14.68;6.07;;;;;;;;;;6306194;22;20025;-91
2023/06/08 07:39:26;;;;;;;12.07;4.35;;;;;;;;;;6304603;22;20097;-91
2023/06/08 07:42:10;;;;;;;14.82;5.00;;;;;;;;;;6305692;22;20350;-90
2023/06/08 07:44:55;;;;;;;13.05;6.05;;;;;;;;;;6283289;22;20022;-91
2023/06/08 07:47:41;;;;;;;13.38;4.85;;;;;;;;;;6306327;22;20019;-91
2023/06/08 07:50:26;;;;;;;14.30;4.18;;;;;;;;;;6304479;22;20071;-91
2023/06/08 07:53:12;;;;;;;16.00;4.03;;;;;;;;;;6282826;22;20018;-90
2023/06/08 07:55:57;;;;;;;9.45;4.32;;;;;;;;;;6305915;22;20019;-91
2023/06/08 07:58:41;;;;;;;11.38;4.63;;;;;;;;;;6304741;22;20384;-91
2023/06/08 08:01:28;;;;;;;12.48;4.70;;;;;;;;;;6305663;22;20374;-91
2023/06/08 08:04:13;;;;;;;11.60;4.03;;;;;;;;;;6304267;22;20056;-91
2023/06/08 08:06:58;;;;;;;14.13;6.35;;;;;;;;;;6304647;22;20038;-91
2023/06/08 08:09:42;;;;;;;12.32;4.93;;;;;;;;;;6306229;22;20057;-91
2023/06/08 08:12:27;;;;;;;12.40;5.35;;;;;;;;;;6305192;22;20068;-91
2023/06/08 08:15:11;;;;;;;17.35;5.35;;;;;;;;;;6282263;22;20022;-91
2023/06/08 08:17:56;;;;;;;13.23;4.43;;;;;;;;;;6305703;22;20030;-91
2023/06/08 08:20:41;;;;;;;14.70;4.07;;;;;;;;;;6283157;22;20420;-91
2023/06/08 08:23:26;;;;;;;12.27;4.95;;;;;;;;;;6285261;22;20046;-90
2023/06/08 08:26:10;;;;;;;10.98;4.45;;;;;;;;;;6307886;22;20023;-92
2023/06/08 08:28:58;;;;;;;8.93;4.05;;;;;;;;;;6285418;22;20046;-92
2023/06/08 08:31:42;;;;;;;8.93;4.20;;;;;;;;;;6306188;22;20334;-91
2023/06/08 08:34:27;;;;;;;9.02;3.95;;;;;;;;;;6303863;22;20815;-90
2023/06/08 08:37:13;;;;;;;15.25;4.15;;;;;;;;;;6304232;22;20025;-91
2023/06/08 08:39:57;;;;;;;16.35;4.32;;;;;;;;;;6283186;22;20342;-91
2023/06/08 08:42:45;;;;;;;10.50;4.07;;;;;;;;;;6305629;22;20149;-92
2023/06/08 08:45:31;;;;;;;8.90;3.50;;;;;;;;;;6304051;22;20060;-91
2023/06/08 08:48:19;;;;;;;13.35;4.28;;;;;;;;;;6304954;22;20018;-91
2023/06/08 08:51:04;;;;;;;12.80;4.88;;;;;;;;;;6305675;22;20060;-91
2023/06/08 08:53:55;;;;;;;11.63;4.43;;;;;;;;;;6282505;22;20044;-91
2023/06/08 08:56:40;;;;;;;12.70;4.53;;;;;;;;;;6304220;22;20057;-92
2023/06/08 08:59:27;;;;;;;10.75;3.65;;;;;;;;;;6305107;22;20083;-91
2023/06/08 09:02:12;;;;;;;10.93;4.93;;;;;;;;;;6283000;22;20022;-91
2023/06/08 09:04:56;;;;;;;13.02;5.43;;;;;;;;;;6304167;22;20018;-92
2023/06/08 09:07:41;;;;;;;11.00;4.50;;;;;;;;;;6305369;22;20018;-90
2023/06/08 09:10:26;;;;;;;12.18;4.88;;;;;;;;;;6303489;22;20380;-90
2023/06/08 09:13:20;;;;;;;11.00;4.95;;;;;;;;;;6305472;22;20017;-91
2023/06/08 09:16:15;;;;;;;10.18;3.97;;;20.70;97.70;;;;;;6303591;22;20049;-91
2023/06/08 09:19:04;;;;;;;11.98;4.88;;;;;;;;;;6305290;22;20088;-92
2023/06/08 09:21:49;;;;;;;13.50;4.00;;;;;;;;;;6304177;22;20437;-90
2023/06/08 09:24:34;;;;;;;7.65;3.80;;;;;;;;;;6281670;22;20018;-91
2023/06/08 09:27:27;;;;;;;14.40;4.30;;;;;;;;;;6281899;22;20137;-92
2023/06/08 09:30:24;;;;;;;11.30;3.72;;;;;;;;;;6307131;22;20026;-91
2023/06/08 09:33:23;;;;;;;13.15;5.05;;;;;;;;;;6306104;22;20010;-91
2023/06/08 09:36:08;;;;;;;10.70;4.18;;;;;;;;;;6306090;22;20041;-93
2023/06/08 09:38:56;;;;;;;14.98;4.53;;;;;;;;;;6305876;22;20022;-92
2023/06/08 09:41:55;;;;;;;8.90;4.30;;;21.30;95.20;;;;;;6306617;22;20088;-92
2023/06/08 09:44:39;;;;;;;12.43;3.60;;;;;;;;;;6306546;22;20014;-92
2023/06/08 09:47:28;;;;;;;12.25;4.20;;;;;;;;;;6283568;22;20384;-91
2023/06/08 09:50:13;;;;;;;11.30;4.38;;;;;;;;;;6305965;22;20092;-95
2023/06/08 09:52:58;;;;;;;11.52;3.90;;;;;;;;;;6305751;22;20053;-91
2023/06/08 09:55:43;;;;;;;9.77;3.63;;;;;;;;;;6306043;22;20548;-90
2023/06/08 09:58:29;;;;;;;8.15;3.50;;;;;;;;;;6306273;22;20014;-91
2023/06/08 10:01:16;;;;;;;6.88;3.30;;;;;;;;;;6305590;22;20310;-90
2023/06/08 10:04:02;;;;;;;11.00;3.63;;;;;;;;;;6306650;22;20010;-93
2023/06/08 10:06:47;;;;;;;9.20;3.15;;;;;;;;;;6306851;22;20452;-92
2023/06/08 10:09:34;;;;;;;9.77;3.63;;;;;;;;;;6304958;22;20401;-90
2023/06/08 10:12:19;;;;;;;13.32;3.72;;;;;;;;;;6306796;22;20341;-92
2023/06/08 10:15:05;;;;;;;11.10;3.80;;;;;;;;;;6283905;22;20325;-91
2023/06/08 10:17:53;;;;;;;14.45;3.50;;;;;;;;;;6283555;22;20025;-93
2023/06/08 10:20:38;;;;;;;11.25;3.95;;;;;;;;;;6305480;22;20033;-91
2023/06/08 10:23:23;;;;;;;12.52;4.68;;;;;;;;;;6304839;22;20065;-90
2023/06/08 10:26:08;;;;;;;8.02;3.47;;;;;;;;;;6306334;22;20014;-91
2023/06/08 10:29:04;;;;;;;12.02;3.70;;;;;;;;;;6305141;22;20134;-91
2023/06/08 10:31:50;;;;;;;11.80;4.00;;;;;;;;;;6306308;22;20018;-92
2023/06/08 10:34:39;;;;;;;11.57;4.35;;;;;;;;;;6304622;22;20018;-92
2023/06/08 10:37:30;;;;;;;7.50;3.45;;;;;;;;;;6283720;22;20026;-91
2023/06/08 10:40:14;;;;;;;9.82;3.47;;;;;;;;;;6304827;22;20018;-90
2023/06/08 10:42:59;;;;;;;12.85;3.97;;;;;;;;;;6283512;22;20040;-90
2023/06/08 10:45:45;;;;;;;13.15;4.15;;;;;;;;;;6304521;22;20010;-92
2023/06/08 10:48:37;;;;;;;9.68;3.55;;;;;;;;;;6304760;22;20334;-89
2023/06/08 10:51:24;;;;;;;10.57;3.58;;;;;;;;;;6306469;22;20053;-91
2023/06/08 10:54:09;;;;;;;13.48;3.78;;;;;;;;;;6305129;22;20013;-90
2023/06/08 10:56:58;;;;;;;11.82;3.47;;;23.10;90.30;;;;;;6305729;22;20073;-90
2023/06/08 10:59:45;;;;;;;11.63;3.80;;;;;;;;;;6305573;22;20014;-91
2023/06/08 11:02:30;;;;;;;9.88;3.60;;;;;;;;;;6305684;22;20105;-90
2023/06/08 11:05:15;;;;;;;11.45;4.90;;;;;;;;;;6283211;22;20392;-89
2023/06/08 11:08:00;;;;;;;10.65;3.25;;;;;;;;;;6306381;22;20022;-90
2023/06/08 11:10:50;;;;;;;8.73;3.60;;;;;;;;;;6304343;22;20334;-91
2023/06/08 11:13:35;;;;;;;10.18;3.47;;;;;;;;;;6304409;22;20076;-91
2023/06/08 11:16:20;;;;;;;11.82;3.35;;;;;;;;;;6305759;22;20026;-91
2023/06/08 11:19:09;;;;;;;11.70;4.03;;;;;;;;;;6306262;22;20014;-91
2023/06/08 11:21:54;;;;;;;12.50;4.13;;;;;;;;;;6305330;22;20137;-91
2023/06/08 11:24:38;;;;;;;7.30;3.33;;;;;;;;;;6304218;22;20092;-91
2023/06/08 11:27:23;;;;;;;11.75;3.60;;;;;;;;;;6306087;22;20018;-92
2023/06/08 11:30:09;;;;;;;10.27;3.63;;;;;;;;;;6306133;22;20011;-90
2023/06/08 11:32:53;;;;;;;10.02;3.15;;;;;;;;;;6305272;22;20010;-91
2023/06/08 11:35:38;;;;;;;9.90;3.67;;;;;;;;;;6305340;22;20065;-91
2023/06/08 11:38:23;;;;;;;6.78;3.13;;;;;;;;;;6283055;22;20034;-91
2023/06/08 11:41:10;;;;;;;12.70;3.80;;;;;;;;;;6305724;22;20387;-91
2023/06/08 11:43:57;;;;;;;12.73;3.70;;;;;;;;;;6305261;22;20018;-93
2023/06/08 11:46:42;;;;;;;10.98;3.50;;;;;;;;;;6305198;22;20047;-90
2023/06/08 11:49:26;;;;;;;9.05;3.63;;;;;;;;;;6282894;22;20056;-91
2023/06/08 11:52:11;;;;;;;11.98;3.75;;;;;;;;;;6305737;22;20081;-93
2023/06/08 11:54:56;;;;;;;9.68;3.78;;;;;;;;;;6303720;22;20014;-92
2023/06/08 11:57:41;;;;;;;10.80;3.25;;;;;;;;;;6305185;22;20069;-92
2023/06/08 12:00:31;;;;;;;10.27;3.67;;;;;;;;;;6305774;22;20009;-91
2023/06/08 12:03:15;;;;;;;10.48;3.63;;;;;;;;;;6305922;22;20014;-90
2023/06/08 12:06:13;;;;;;;10.77;4.53;;;;;;;;;;6304017;22;20014;-90
2023/06/08 12:08:58;;;;;;;9.93;3.53;;;;;;;;;;6303929;22;20022;-92
2023/06/08 12:11:43;;;;;;;8.93;3.58;;;;;;;;;;6281900;22;20018;-92
2023/06/08 12:14:28;;;;;;;11.40;3.78;;;;;;;;;;6305663;22;20018;-91
2023/06/08 12:17:16;;;;;;;11.48;3.67;;;;;;;;;;6282362;22;20041;-91
2023/06/08 12:20:05;;;;;;;13.55;4.28;;;;;;;;;;6282757;22;20452;-91
2023/06/08 12:22:50;;;;;;;9.32;3.38;;;;;;;;;;6305136;22;20017;-91
2023/06/08 12:25:35;;;;;;;8.05;3.38;;;;;;;;;;6304228;22;20019;-91
2023/06/08 12:28:21;;;;;;;8.88;3.45;;;;;;;;;;6282620;22;20022;-93
2023/06/08 12:31:05;;;;;;;6.20;2.80;;;;;;;;;;6303897;22;20022;-91
2023/06/08 12:33:50;;;;;;;9.98;3.50;;;;;;;;;;6282025;22;20018;-92
2023/06/08 12:36:35;;;;;;;11.55;3.40;;;;;;;;;;6303965;22;20062;-93
2023/06/08 12:39:19;;;;;;;10.15;3.40;;;;;;;;;;6282536;22;20061;-90
2023/06/08 12:42:04;;;;;;;9.55;3.47;;;;;;;;;;6304965;22;20383;-91
2023/06/08 12:44:49;;;;;;;11.27;3.33;;;;;;;;;;6304722;22;20042;-92
2023/06/08 12:47:34;;;;;;;11.18;3.45;;;;;;;;;;6282517;22;20022;-91
2023/06/08 12:50:21;;;;;;;12.25;4.10;;;;;;;;;;6305310;22;20018;-92
2023/06/08 12:53:06;;;;;;;8.52;2.97;;;;;;;;;;6303711;22;20039;-92
2023/06/08 12:55:51;;;;;;;9.48;3.28;;;;;;;;;;6303437;22;20476;-92
2023/06/08 12:58:36;;;;;;;10.40;3.85;;;;;;;;;;6304958;22;20349;-92
2023/06/08 13:01:20;;;;;;;9.88;3.03;;;;;;;;;;6282742;22;20022;-91
2023/06/08 13:04:05;;;;;;;9.55;3.33;;;;;;;;;;6304751;22;20897;-92
2023/06/08 13:06:50;;;;;;;9.05;3.30;;;;;;;;;;6283618;22;20022;-91
2023/06/08 13:09:38;;;;;;;10.45;3.25;;;;;;;;;;6306131;22;20017;-91
2023/06/08 13:12:22;;;;;;;13.30;3.47;;;;;;;;;;6307280;22;20021;-92
2023/06/08 13:15:07;;;;;;;8.20;3.28;;;;;;;;;;6305416;22;20014;-92
2023/06/08 13:17:52;;;;;;;9.43;3.08;;;;;;;;;;6306969;22;20029;-91
2023/06/08 13:20:37;;;;;;;11.02;3.80;;;;;;;;;;6284211;22;20018;-92
2023/06/08 13:23:24;;;;;;;10.00;3.20;;;;;;;;;;6284424;22;20369;-92
2023/06/08 13:26:08;;;;;;;9.38;3.20;;;;;;;;;;6305364;22;20018;-92
2023/06/08 13:28:53;;;;;;;7.00;3.00;;;;;;;;;;6306556;22;20357;-91
2023/06/08 13:31:37;;;;;;;9.20;3.20;;;;;;;;;;6307150;22;20018;-93
2023/06/08 13:34:22;;;;;;;9.52;2.85;;;;;;;;;;6307045;22;20453;-92
2023/06/08 13:37:06;;;;;;;5.32;2.80;;;;;;;;;;6283504;22;20050;-88
2023/06/08 13:39:51;;;;;;;11.35;2.97;;;;;;;;;;6305029;22;20066;-91
2023/06/08 13:42:38;;;;;;;12.65;3.05;;;;;;;;;;6305821;22;20050;-91
2023/06/08 13:45:23;;;;;;;11.27;3.50;;;;;;;;;;6307164;22;20037;-91
2023/06/08 13:48:07;;;;;;;9.65;3.30;;;;;;;;;;6305101;22;20094;-92
2023/06/08 13:50:52;;;;;;;10.75;2.80;;;;;;;;;;6306433;22;20064;-91
2023/06/08 13:53:37;;;;;;;7.75;2.70;;;;;;;;;;6307440;22;20033;-91
2023/06/08 13:56:22;;;;;;;15.95;3.70;;;;;;;;;;6284280;22;20030;-92
2023/06/08 13:59:07;;;;;;;11.95;3.33;;;;;;;;;;6306756;22;20018;-92
2023/06/08 14:01:53;;;;;;;8.30;2.72;;;;;;;;;;6283861;22;20504;-91
2023/06/08 14:04:38;;;;;;;8.05;2.22;;;;;;;;;;6307894;22;20014;-94
2023/06/08 14:07:22;;;;;;;13.80;3.10;;;;;;;;;;6307653;22;20023;-92
2023/06/08 14:10:07;;;;;;;9.38;2.80;;;;;;;;;;6307323;22;20436;-92
2023/06/08 14:12:52;;;;;;;9.98;2.55;;;;;;;;;;6283664;22;20018;-91
2023/06/08 14:15:37;;;;;;;7.18;3.08;;;;;;;;;;6284034;22;20014;-92
2023/06/08 14:18:21;;;;;;;10.27;3.17;;;;;;;;;;6305345;22;20492;-91
2023/06/08 14:21:07;;;;;;;8.93;2.72;;;;;;;;;;6283245;22;20392;-91
2023/06/08 14:23:52;;;;;;;13.48;3.28;;;;;;;;;;6306917;22;20018;-91
2023/06/08 14:26:36;;;;;;;7.93;2.47;;;;;;;;;;6305589;22;20018;-91
2023/06/08 14:29:21;;;;;;;6.82;2.63;;;;;;;;;;6305673;22;20021;-93
2023/06/08 14:32:06;;;;;;;12.45;2.80;;;;;;;;;;6304829;22;20401;-92
2023/06/08 14:34:50;;;;;;;11.25;2.72;;;;;;;;;;6306673;22;20017;-93
2023/06/08 14:37:35;;;;;;;9.25;2.63;;;;;;;;;;6306506;22;20018;-92
2023/06/08 14:40:20;;;;;;;5.43;2.55;;;;;;;;;;6304857;22;20056;-91
2023/06/08 14:43:05;;;;;;;7.55;2.72;;;;;;;;;;6304540;22;20068;-93
2023/06/08 14:45:49;;;;;;;6.78;2.50;;;;;;;;;;6283709;22;20019;-93
2023/06/08 14:48:34;;;;;;;6.20;2.33;;;;;;;;;;6306941;22;20097;-94
2023/06/08 14:51:18;;;;;;;8.80;2.85;;;;;;;;;;6304750;22;20013;-92
2023/06/08 14:54:03;;;;;;;5.95;2.63;;;;;;;;;;6283368;22;20060;-92
2023/06/08 14:56:47;;;;;;;7.10;2.60;;;;;;;;;;6306329;22;20029;-91
2023/06/08 14:59:32;;;;;;;8.02;2.30;;;;;;;;;;6305578;22;20017;-92
2023/06/08 15:02:16;;;;;;;9.68;3.17;;;;;;;;;;6305775;22;20165;-92
2023/06/08 15:05:01;;;;;;;9.98;2.88;;;;;;;;;;6304416;22;20084;-93
2023/06/08 15:07:45;;;;;;;7.60;2.88;;;;;;;;;;6306409;22;20015;-94
2023/06/08 15:10:30;;;;;;;7.82;2.38;;;;;;;;;;6306159;22;20132;-92
2023/06/08 15:13:15;;;;;;;11.68;2.88;;;;;;;;;;6305694;22;20067;-92
2023/06/08 15:16:00;;;;;;;10.00;2.90;;;;;;;;;;6305659;22;20060;-91
2023/06/08 15:18:44;;;;;;;8.57;2.33;;;;;;;;;;6305761;22;20060;-93
2023/06/08 15:21:29;;;;;;;8.63;2.97;;;;;;;;;;6283695;22;20076;-93
2023/06/08 15:24:13;;;;;;;9.32;3.13;;;;;;;;;;6282776;22;20014;-93
2023/06/08 15:26:58;;;;;;;9.18;2.80;;;;;;;;;;6306401;22;20021;-94
2023/06/08 15:29:43;;;;;;;8.70;2.67;;;;;;;;;;6306854;22;20041;-94
2023/06/08 15:32:27;;;;;;;11.13;3.20;;;;;;;;;;6305622;22;20013;-93
2023/06/08 15:35:12;;;;;;;7.45;2.72;;;;;;;;;;6305101;22;20447;-94
2023/06/08 15:37:56;;;;;;;6.90;2.65;;;;;;;;;;6306710;22;20022;-93
2023/06/08 15:40:41;;;;;;;8.45;3.40;;;;;;;;;;6305453;22;20014;-94
2023/06/08 15:43:25;;;;;;;10.40;3.47;;;;;;;;;;6304576;22;20068;-94
2023/06/08 15:46:11;;;;;;;11.00;2.90;;;;;;;;;;6304603;22;20065;-92
2023/06/08 15:48:56;;;;;;;10.85;3.78;;;;;;;;;;6304744;22;20074;-94
2023/06/08 15:51:43;;;;;;;8.93;3.53;;;;;;;;;;6282733;22;20018;-92
2023/06/08 15:54:27;;;;;;;6.80;2.97;;;;;;;;;;6306015;22;20061;-92
2023/06/08 15:57:16;;;;;;;8.57;3.13;;;;;;;;;;6282232;22;20025;-92
2023/06/08 16:00:01;;;;;;;11.00;3.03;;;;;;;;;;6304854;22;20017;-92
2023/06/08 16:02:46;;;;;;;11.73;3.47;;;;;;;;;;6304945;22;20380;-91
2023/06/08 16:05:30;;;;;;;10.63;3.42;;;;;;;;;;6282668;22;20449;-92
2023/06/08 16:08:18;;;;;;;7.10;2.22;;;;;;;;;;6304229;22;20021;-91
2023/06/08 16:11:03;;;;;;;10.48;3.60;;;;;;;;;;6304882;22;20010;-92
2023/06/08 16:13:49;;;;;;;9.48;2.70;;;;;;;;;;6306111;22;20064;-92
2023/06/08 16:16:33;;;;;;;14.18;3.80;;;;;;;;;;6305310;22;20023;-92
2023/06/08 16:19:18;;;;;;;9.45;3.20;;;;;;;;;;6283615;22;20031;-92